sensor_id;sensor_type;location;lat;lon;timestamp;P1;durP1;ratioP1;P2;durP2;ratioP2
71836;SDS011;59686;51.716;7.016;2023-05-10T00:00:14;2.97;;;2.70;;
71836;SDS011;59686;51.716;7.016;2023-05-10T00:02:40;2.92;;;2.53;;
71836;SDS011;59686;51.716;7.016;2023-05-10T00:05:06;3.50;;;3.20;;
71836;SDS011;59686;51.716;7.016;2023-05-10T00:07:32;3.47;;;3.03;;
71836;SDS011;59686;51.716;7.016;2023-05-10T00:10:10;3.30;;;3.00;;
71836;SDS011;59686;51.716;7.016;2023-05-10T00:12:36;3.13;;;2.83;;
71836;SDS011;59686;51.716;7.016;2023-05-10T00:15:02;4.22;;;3.47;;
71836;SDS011;59686;51.716;7.016;2023-05-10T00:17:28;3.92;;;3.53;;
71836;SDS011;59686;51.716;7.016;2023-05-10T00:19:54;4.22;;;3.17;;
71836;SDS011;59686;51.716;7.016;2023-05-10T00:22:20;3.47;;;3.00;;
71836;SDS011;59686;51.716;7.016;2023-05-10T00:24:46;3.42;;;3.13;;
71836;SDS011;59686;51.716;7.016;2023-05-10T00:27:11;4.07;;;3.67;;
71836;SDS011;59686;51.716;7.016;2023-05-10T00:29:37;4.00;;;3.60;;
71836;SDS011;59686;51.716;7.016;2023-05-10T00:32:03;4.25;;;3.85;;
71836;SDS011;59686;51.716;7.016;2023-05-10T00:34:28;3.83;;;3.53;;
71836;SDS011;59686;51.716;7.016;2023-05-10T00:36:54;3.80;;;3.50;;
71836;SDS011;59686;51.716;7.016;2023-05-10T00:39:21;4.07;;;3.67;;
71836;SDS011;59686;51.716;7.016;2023-05-10T00:41:46;4.55;;;4.15;;
71836;SDS011;59686;51.716;7.016;2023-05-10T00:44:14;4.18;;;3.63;;
71836;SDS011;59686;51.716;7.016;2023-05-10T00:46:40;3.88;;;3.58;;
71836;SDS011;59686;51.716;7.016;2023-05-10T00:49:06;4.00;;;3.58;;
71836;SDS011;59686;51.716;7.016;2023-05-10T00:51:32;4.57;;;4.00;;
71836;SDS011;59686;51.716;7.016;2023-05-10T00:53:58;4.28;;;3.88;;
71836;SDS011;59686;51.716;7.016;2023-05-10T00:56:25;5.25;;;3.70;;
71836;SDS011;59686;51.716;7.016;2023-05-10T00:58:51;4.28;;;3.85;;
71836;SDS011;59686;51.716;7.016;2023-05-10T01:01:17;4.32;;;3.70;;
71836;SDS011;59686;51.716;7.016;2023-05-10T01:03:44;4.47;;;4.07;;
71836;SDS011;59686;51.716;7.016;2023-05-10T01:06:10;4.18;;;3.50;;
71836;SDS011;59686;51.716;7.016;2023-05-10T01:08:38;3.55;;;3.25;;
71836;SDS011;59686;51.716;7.016;2023-05-10T01:11:04;3.28;;;2.97;;
71836;SDS011;59686;51.716;7.016;2023-05-10T01:15:58;3.30;;;2.97;;
71836;SDS011;59686;51.716;7.016;2023-05-10T01:18:27;3.80;;;3.00;;
71836;SDS011;59686;51.716;7.016;2023-05-10T01:37:42;2.45;;;2.10;;
71836;SDS011;59686;51.716;7.016;2023-05-10T01:40:20;2.30;;;2.10;;
71836;SDS011;59686;51.716;7.016;2023-05-10T01:42:56;2.38;;;2.17;;
71836;SDS011;59686;51.716;7.016;2023-05-10T01:45:41;2.35;;;2.15;;
71836;SDS011;59686;51.716;7.016;2023-05-10T01:48:25;2.50;;;2.03;;
71836;SDS011;59686;51.716;7.016;2023-05-10T01:50:53;2.40;;;1.55;;
71836;SDS011;59686;51.716;7.016;2023-05-10T01:53:21;2.30;;;1.83;;
71836;SDS011;59686;51.716;7.016;2023-05-10T01:55:49;2.10;;;1.90;;
71836;SDS011;59686;51.716;7.016;2023-05-10T01:58:25;1.88;;;1.70;;
71836;SDS011;59686;51.716;7.016;2023-05-10T02:00:54;1.70;;;1.60;;
71836;SDS011;59686;51.716;7.016;2023-05-10T02:03:23;1.70;;;1.60;;
71836;SDS011;59686;51.716;7.016;2023-05-10T02:05:51;2.00;;;1.58;;
71836;SDS011;59686;51.716;7.016;2023-05-10T02:08:18;1.88;;;1.60;;
71836;SDS011;59686;51.716;7.016;2023-05-10T02:10:45;1.70;;;1.50;;
71836;SDS011;59686;51.716;7.016;2023-05-10T02:13:13;1.52;;;1.42;;
71836;SDS011;59686;51.716;7.016;2023-05-10T02:15:41;2.35;;;1.40;;
71836;SDS011;59686;51.716;7.016;2023-05-10T02:18:07;1.67;;;1.58;;
71836;SDS011;59686;51.716;7.016;2023-05-10T02:20:35;1.50;;;1.40;;
71836;SDS011;59686;51.716;7.016;2023-05-10T02:23:02;1.42;;;1.33;;
71836;SDS011;59686;51.716;7.016;2023-05-10T02:25:28;3.10;;;1.20;;
71836;SDS011;59686;51.716;7.016;2023-05-10T02:27:55;1.35;;;1.25;;
71836;SDS011;59686;51.716;7.016;2023-05-10T02:30:22;2.63;;;1.50;;
71836;SDS011;59686;51.716;7.016;2023-05-10T02:32:49;1.83;;;1.30;;
71836;SDS011;59686;51.716;7.016;2023-05-10T02:35:17;1.30;;;1.20;;
71836;SDS011;59686;51.716;7.016;2023-05-10T02:37:43;1.45;;;1.30;;
71836;SDS011;59686;51.716;7.016;2023-05-10T02:40:11;1.20;;;1.10;;
71836;SDS011;59686;51.716;7.016;2023-05-10T02:42:38;1.38;;;1.25;;
71836;SDS011;59686;51.716;7.016;2023-05-10T02:45:10;1.30;;;1.20;;
71836;SDS011;59686;51.716;7.016;2023-05-10T02:47:38;1.40;;;1.30;;
71836;SDS011;59686;51.716;7.016;2023-05-10T02:50:04;1.23;;;1.13;;
71836;SDS011;59686;51.716;7.016;2023-05-10T02:52:36;1.88;;;1.40;;
71836;SDS011;59686;51.716;7.016;2023-05-10T02:55:19;1.50;;;1.40;;
71836;SDS011;59686;51.716;7.016;2023-05-10T02:57:57;1.60;;;1.50;;
71836;SDS011;59686;51.716;7.016;2023-05-10T03:00:25;1.50;;;1.30;;
71836;SDS011;59686;51.716;7.016;2023-05-10T03:02:51;1.63;;;1.52;;
71836;SDS011;59686;51.716;7.016;2023-05-10T03:05:17;2.55;;;1.70;;
71836;SDS011;59686;51.716;7.016;2023-05-10T03:07:45;2.05;;;1.85;;
71836;SDS011;59686;51.716;7.016;2023-05-10T03:10:11;2.45;;;2.25;;
71836;SDS011;59686;51.716;7.016;2023-05-10T03:15:38;2.63;;;2.17;;
71836;SDS011;59686;51.716;7.016;2023-05-10T03:18:23;2.55;;;2.35;;
71836;SDS011;59686;51.716;7.016;2023-05-10T03:21:02;3.20;;;2.63;;
71836;SDS011;59686;51.716;7.016;2023-05-10T03:23:34;3.70;;;2.75;;
71836;SDS011;59686;51.716;7.016;2023-05-10T03:26:03;3.28;;;2.80;;
71836;SDS011;59686;51.716;7.016;2023-05-10T03:28:31;3.47;;;3.17;;
71836;SDS011;59686;51.716;7.016;2023-05-10T03:30:59;3.50;;;3.20;;
71836;SDS011;59686;51.716;7.016;2023-05-10T03:33:25;4.10;;;3.65;;
71836;SDS011;59686;51.716;7.016;2023-05-10T03:35:52;4.95;;;3.80;;
71836;SDS011;59686;51.716;7.016;2023-05-10T03:38:18;4.88;;;3.95;;
71836;SDS011;59686;51.716;7.016;2023-05-10T03:40:44;4.82;;;4.07;;
71836;SDS011;59686;51.716;7.016;2023-05-10T03:43:09;4.88;;;4.38;;
71836;SDS011;59686;51.716;7.016;2023-05-10T03:45:38;5.32;;;4.57;;
71836;SDS011;59686;51.716;7.016;2023-05-10T03:48:10;6.05;;;5.25;;
71836;SDS011;59686;51.716;7.016;2023-05-10T03:50:36;6.82;;;5.93;;
71836;SDS011;59686;51.716;7.016;2023-05-10T03:53:01;6.63;;;5.43;;
71836;SDS011;59686;51.716;7.016;2023-05-10T03:55:27;6.60;;;5.30;;
71836;SDS011;59686;51.716;7.016;2023-05-10T03:57:56;6.88;;;6.18;;
71836;SDS011;59686;51.716;7.016;2023-05-10T04:00:22;6.95;;;6.18;;
71836;SDS011;59686;51.716;7.016;2023-05-10T04:02:47;9.27;;;7.55;;
71836;SDS011;59686;51.716;7.016;2023-05-10T04:05:13;8.48;;;6.30;;
71836;SDS011;59686;51.716;7.016;2023-05-10T04:07:39;9.10;;;7.10;;
71836;SDS011;59686;51.716;7.016;2023-05-10T04:10:04;9.10;;;7.07;;
71836;SDS011;59686;51.716;7.016;2023-05-10T04:12:30;8.60;;;7.15;;
71836;SDS011;59686;51.716;7.016;2023-05-10T04:14:56;8.10;;;6.90;;
71836;SDS011;59686;51.716;7.016;2023-05-10T04:17:22;9.27;;;7.75;;
71836;SDS011;59686;51.716;7.016;2023-05-10T04:19:47;9.27;;;7.53;;
71836;SDS011;59686;51.716;7.016;2023-05-10T04:22:13;9.05;;;7.80;;
71836;SDS011;59686;51.716;7.016;2023-05-10T04:24:39;9.15;;;7.70;;
71836;SDS011;59686;51.716;7.016;2023-05-10T04:27:04;9.23;;;8.18;;
71836;SDS011;59686;51.716;7.016;2023-05-10T04:29:30;9.50;;;8.48;;
71836;SDS011;59686;51.716;7.016;2023-05-10T04:31:56;10.50;;;8.25;;
71836;SDS011;59686;51.716;7.016;2023-05-10T04:34:32;9.98;;;8.65;;
71836;SDS011;59686;51.716;7.016;2023-05-10T04:36:59;11.13;;;9.25;;
71836;SDS011;59686;51.716;7.016;2023-05-10T04:39:29;11.90;;;9.75;;
71836;SDS011;59686;51.716;7.016;2023-05-10T04:41:54;11.50;;;9.68;;
71836;SDS011;59686;51.716;7.016;2023-05-10T04:44:23;13.25;;;10.27;;
71836;SDS011;59686;51.716;7.016;2023-05-10T04:46:49;14.15;;;10.75;;
71836;SDS011;59686;51.716;7.016;2023-05-10T04:49:14;15.40;;;11.48;;
71836;SDS011;59686;51.716;7.016;2023-05-10T04:51:50;13.98;;;11.48;;
71836;SDS011;59686;51.716;7.016;2023-05-10T04:54:19;13.23;;;10.82;;
71836;SDS011;59686;51.716;7.016;2023-05-10T04:56:44;15.32;;;11.48;;
71836;SDS011;59686;51.716;7.016;2023-05-10T04:59:10;16.08;;;12.25;;
71836;SDS011;59686;51.716;7.016;2023-05-10T05:01:36;14.40;;;12.25;;
71836;SDS011;59686;51.716;7.016;2023-05-10T05:04:02;16.58;;;12.88;;
71836;SDS011;59686;51.716;7.016;2023-05-10T05:06:28;16.75;;;12.73;;
71836;SDS011;59686;51.716;7.016;2023-05-10T05:08:54;15.10;;;12.45;;
71836;SDS011;59686;51.716;7.016;2023-05-10T05:11:20;17.33;;;13.48;;
71836;SDS011;59686;51.716;7.016;2023-05-10T05:13:46;16.83;;;13.50;;
71836;SDS011;59686;51.716;7.016;2023-05-10T05:16:13;19.33;;;14.00;;
71836;SDS011;59686;51.716;7.016;2023-05-10T05:18:39;18.83;;;14.35;;
71836;SDS011;59686;51.716;7.016;2023-05-10T05:21:14;19.65;;;13.93;;
71836;SDS011;59686;51.716;7.016;2023-05-10T05:23:43;17.08;;;13.43;;
71836;SDS011;59686;51.716;7.016;2023-05-10T05:26:09;19.50;;;14.82;;
71836;SDS011;59686;51.716;7.016;2023-05-10T05:28:35;22.67;;;15.13;;
71836;SDS011;59686;51.716;7.016;2023-05-10T05:31:05;19.90;;;14.77;;
71836;SDS011;59686;51.716;7.016;2023-05-10T05:33:32;19.70;;;15.48;;
71836;SDS011;59686;51.716;7.016;2023-05-10T05:36:02;19.73;;;15.07;;
71836;SDS011;59686;51.716;7.016;2023-05-10T05:38:35;19.33;;;15.07;;
71836;SDS011;59686;51.716;7.016;2023-05-10T05:41:02;20.02;;;15.98;;
71836;SDS011;59686;51.716;7.016;2023-05-10T05:43:28;19.55;;;15.85;;
71836;SDS011;59686;51.716;7.016;2023-05-10T05:45:54;24.27;;;17.27;;
71836;SDS011;59686;51.716;7.016;2023-05-10T05:48:20;22.10;;;16.83;;
71836;SDS011;59686;51.716;7.016;2023-05-10T05:50:45;22.45;;;16.02;;
71836;SDS011;59686;51.716;7.016;2023-05-10T05:53:11;22.88;;;16.60;;
71836;SDS011;59686;51.716;7.016;2023-05-10T05:55:37;22.70;;;17.00;;
71836;SDS011;59686;51.716;7.016;2023-05-10T05:58:02;22.52;;;17.20;;
71836;SDS011;59686;51.716;7.016;2023-05-10T06:00:28;20.20;;;16.23;;
71836;SDS011;59686;51.716;7.016;2023-05-10T06:02:54;20.90;;;16.35;;
71836;SDS011;59686;51.716;7.016;2023-05-10T06:05:19;21.13;;;16.23;;
71836;SDS011;59686;51.716;7.016;2023-05-10T06:07:46;21.92;;;16.45;;
71836;SDS011;59686;51.716;7.016;2023-05-10T06:10:11;22.40;;;17.75;;
71836;SDS011;59686;51.716;7.016;2023-05-10T06:12:37;22.58;;;17.45;;
71836;SDS011;59686;51.716;7.016;2023-05-10T06:15:03;20.23;;;15.98;;
71836;SDS011;59686;51.716;7.016;2023-05-10T06:17:30;21.48;;;16.95;;
71836;SDS011;59686;51.716;7.016;2023-05-10T06:19:55;25.98;;;17.77;;
71836;SDS011;59686;51.716;7.016;2023-05-10T06:22:22;22.50;;;17.58;;
71836;SDS011;59686;51.716;7.016;2023-05-10T06:24:48;27.60;;;19.45;;
71836;SDS011;59686;51.716;7.016;2023-05-10T06:27:14;26.08;;;18.70;;
71836;SDS011;59686;51.716;7.016;2023-05-10T06:29:39;26.00;;;19.52;;
71836;SDS011;59686;51.716;7.016;2023-05-10T06:32:05;25.10;;;19.83;;
71836;SDS011;59686;51.716;7.016;2023-05-10T06:34:31;25.02;;;19.48;;
71836;SDS011;59686;51.716;7.016;2023-05-10T06:36:57;24.83;;;19.45;;
71836;SDS011;59686;51.716;7.016;2023-05-10T06:39:23;27.73;;;19.70;;
71836;SDS011;59686;51.716;7.016;2023-05-10T06:41:48;28.98;;;20.95;;
71836;SDS011;59686;51.716;7.016;2023-05-10T06:44:14;29.75;;;20.73;;
71836;SDS011;59686;51.716;7.016;2023-05-10T06:46:39;27.55;;;21.08;;
71836;SDS011;59686;51.716;7.016;2023-05-10T06:49:06;25.90;;;20.42;;
71836;SDS011;59686;51.716;7.016;2023-05-10T06:51:32;25.20;;;19.15;;
71836;SDS011;59686;51.716;7.016;2023-05-10T06:53:58;28.13;;;20.60;;
71836;SDS011;59686;51.716;7.016;2023-05-10T06:56:23;27.50;;;19.48;;
71836;SDS011;59686;51.716;7.016;2023-05-10T06:58:56;29.52;;;21.05;;
71836;SDS011;59686;51.716;7.016;2023-05-10T07:01:22;29.73;;;21.95;;
71836;SDS011;59686;51.716;7.016;2023-05-10T07:03:48;31.27;;;22.40;;
71836;SDS011;59686;51.716;7.016;2023-05-10T07:06:14;28.92;;;21.02;;
71836;SDS011;59686;51.716;7.016;2023-05-10T07:08:44;31.20;;;21.63;;
71836;SDS011;59686;51.716;7.016;2023-05-10T07:11:10;28.88;;;21.05;;
71836;SDS011;59686;51.716;7.016;2023-05-10T07:13:36;28.55;;;20.73;;
71836;SDS011;59686;51.716;7.016;2023-05-10T07:16:04;28.90;;;21.50;;
71836;SDS011;59686;51.716;7.016;2023-05-10T07:18:31;28.48;;;21.60;;
71836;SDS011;59686;51.716;7.016;2023-05-10T07:20:57;29.48;;;21.10;;
71836;SDS011;59686;51.716;7.016;2023-05-10T07:23:22;30.50;;;22.02;;
71836;SDS011;59686;51.716;7.016;2023-05-10T07:25:49;30.95;;;22.15;;
71836;SDS011;59686;51.716;7.016;2023-05-10T07:28:17;31.30;;;22.65;;
71836;SDS011;59686;51.716;7.016;2023-05-10T07:30:43;29.58;;;22.90;;
71836;SDS011;59686;51.716;7.016;2023-05-10T07:33:09;29.73;;;21.08;;
71836;SDS011;59686;51.716;7.016;2023-05-10T07:35:36;28.40;;;21.60;;
71836;SDS011;59686;51.716;7.016;2023-05-10T07:38:02;27.60;;;21.17;;
71836;SDS011;59686;51.716;7.016;2023-05-10T07:40:28;30.48;;;21.38;;
71836;SDS011;59686;51.716;7.016;2023-05-10T07:42:54;30.27;;;21.73;;
71836;SDS011;59686;51.716;7.016;2023-05-10T07:45:20;28.00;;;20.08;;
71836;SDS011;59686;51.716;7.016;2023-05-10T07:47:45;28.88;;;20.63;;
71836;SDS011;59686;51.716;7.016;2023-05-10T07:50:11;27.85;;;20.70;;
71836;SDS011;59686;51.716;7.016;2023-05-10T07:52:37;26.88;;;19.77;;
71836;SDS011;59686;51.716;7.016;2023-05-10T07:55:03;29.35;;;21.25;;
71836;SDS011;59686;51.716;7.016;2023-05-10T07:57:28;30.27;;;21.20;;
71836;SDS011;59686;51.716;7.016;2023-05-10T07:59:54;29.13;;;21.40;;
71836;SDS011;59686;51.716;7.016;2023-05-10T08:02:20;29.63;;;21.20;;
71836;SDS011;59686;51.716;7.016;2023-05-10T08:04:45;26.42;;;20.02;;
71836;SDS011;59686;51.716;7.016;2023-05-10T08:07:11;28.33;;;20.17;;
71836;SDS011;59686;51.716;7.016;2023-05-10T08:09:37;25.50;;;19.15;;
71836;SDS011;59686;51.716;7.016;2023-05-10T08:12:02;25.88;;;20.30;;
71836;SDS011;59686;51.716;7.016;2023-05-10T08:14:30;26.48;;;20.88;;
71836;SDS011;59686;51.716;7.016;2023-05-10T08:16:56;29.13;;;20.10;;
71836;SDS011;59686;51.716;7.016;2023-05-10T08:19:22;27.88;;;19.80;;
71836;SDS011;59686;51.716;7.016;2023-05-10T08:21:48;27.63;;;20.10;;
71836;SDS011;59686;51.716;7.016;2023-05-10T08:24:14;25.58;;;19.30;;
71836;SDS011;59686;51.716;7.016;2023-05-10T08:26:40;27.67;;;20.08;;
71836;SDS011;59686;51.716;7.016;2023-05-10T08:29:06;25.33;;;19.80;;
71836;SDS011;59686;51.716;7.016;2023-05-10T08:34:06;26.55;;;19.63;;
71836;SDS011;59686;51.716;7.016;2023-05-10T08:36:32;28.63;;;22.00;;
71836;SDS011;59686;51.716;7.016;2023-05-10T08:38:58;25.88;;;18.92;;
71836;SDS011;59686;51.716;7.016;2023-05-10T08:41:24;28.77;;;20.92;;
71836;SDS011;59686;51.716;7.016;2023-05-10T08:43:51;28.20;;;20.33;;
71836;SDS011;59686;51.716;7.016;2023-05-10T08:46:18;27.83;;;20.40;;
71836;SDS011;59686;51.716;7.016;2023-05-10T08:48:45;26.83;;;20.05;;
71836;SDS011;59686;51.716;7.016;2023-05-10T08:51:13;30.73;;;21.27;;
71836;SDS011;59686;51.716;7.016;2023-05-10T08:53:42;28.23;;;20.13;;
71836;SDS011;59686;51.716;7.016;2023-05-10T08:56:09;28.33;;;19.20;;
71836;SDS011;59686;51.716;7.016;2023-05-10T08:58:35;26.52;;;18.45;;
71836;SDS011;59686;51.716;7.016;2023-05-10T09:01:01;25.13;;;18.73;;
71836;SDS011;59686;51.716;7.016;2023-05-10T09:03:28;28.23;;;19.02;;
71836;SDS011;59686;51.716;7.016;2023-05-10T09:05:54;25.20;;;18.77;;
71836;SDS011;59686;51.716;7.016;2023-05-10T09:08:23;28.73;;;19.17;;
71836;SDS011;59686;51.716;7.016;2023-05-10T09:10:52;25.98;;;19.25;;
71836;SDS011;59686;51.716;7.016;2023-05-10T09:13:18;26.48;;;18.45;;
71836;SDS011;59686;51.716;7.016;2023-05-10T09:15:45;26.15;;;18.92;;
71836;SDS011;59686;51.716;7.016;2023-05-10T09:18:12;25.88;;;18.52;;
71836;SDS011;59686;51.716;7.016;2023-05-10T09:20:38;25.05;;;18.83;;
71836;SDS011;59686;51.716;7.016;2023-05-10T09:23:04;25.95;;;18.92;;
71836;SDS011;59686;51.716;7.016;2023-05-10T09:25:30;25.08;;;18.25;;
71836;SDS011;59686;51.716;7.016;2023-05-10T09:27:58;23.05;;;17.70;;
71836;SDS011;59686;51.716;7.016;2023-05-10T09:30:29;22.00;;;17.33;;
71836;SDS011;59686;51.716;7.016;2023-05-10T09:32:56;23.45;;;17.80;;
71836;SDS011;59686;51.716;7.016;2023-05-10T09:35:24;24.27;;;17.35;;
71836;SDS011;59686;51.716;7.016;2023-05-10T09:37:52;23.85;;;17.92;;
71836;SDS011;59686;51.716;7.016;2023-05-10T09:40:25;26.63;;;17.65;;
71836;SDS011;59686;51.716;7.016;2023-05-10T09:45:19;26.10;;;17.52;;
71836;SDS011;59686;51.716;7.016;2023-05-10T09:47:46;24.60;;;16.95;;
71836;SDS011;59686;51.716;7.016;2023-05-10T09:50:12;25.83;;;18.33;;
71836;SDS011;59686;51.716;7.016;2023-05-10T09:52:48;27.25;;;19.08;;
71836;SDS011;59686;51.716;7.016;2023-05-10T09:55:16;28.30;;;18.27;;
71836;SDS011;59686;51.716;7.016;2023-05-10T09:57:44;27.52;;;20.25;;
71836;SDS011;59686;51.716;7.016;2023-05-10T10:00:16;26.77;;;19.65;;
71836;SDS011;59686;51.716;7.016;2023-05-10T10:02:59;26.55;;;18.85;;
71836;SDS011;59686;51.716;7.016;2023-05-10T10:05:35;26.65;;;18.50;;
71836;SDS011;59686;51.716;7.016;2023-05-10T10:08:02;26.65;;;18.67;;
71836;SDS011;59686;51.716;7.016;2023-05-10T10:10:29;29.50;;;18.77;;
71836;SDS011;59686;51.716;7.016;2023-05-10T10:12:57;27.88;;;18.85;;
71836;SDS011;59686;51.716;7.016;2023-05-10T10:15:23;25.17;;;18.70;;
71836;SDS011;59686;51.716;7.016;2023-05-10T10:18:00;27.08;;;18.23;;
71836;SDS011;59686;51.716;7.016;2023-05-10T10:20:26;25.33;;;17.67;;
71836;SDS011;59686;51.716;7.016;2023-05-10T10:22:53;24.98;;;18.13;;
71836;SDS011;59686;51.716;7.016;2023-05-10T10:25:19;26.02;;;18.23;;
71836;SDS011;59686;51.716;7.016;2023-05-10T10:27:49;28.40;;;18.85;;
71836;SDS011;59686;51.716;7.016;2023-05-10T10:30:45;26.98;;;18.60;;
71836;SDS011;59686;51.716;7.016;2023-05-10T10:36:20;25.40;;;17.67;;
71836;SDS011;59686;51.716;7.016;2023-05-10T10:41:28;25.05;;;17.75;;
71836;SDS011;59686;51.716;7.016;2023-05-10T10:49:28;25.15;;;17.40;;
71836;SDS011;59686;51.716;7.016;2023-05-10T10:52:20;24.33;;;16.33;;
71836;SDS011;59686;51.716;7.016;2023-05-10T10:54:50;22.33;;;15.60;;
71836;SDS011;59686;51.716;7.016;2023-05-10T11:03:08;20.08;;;15.98;;
71836;SDS011;59686;51.716;7.016;2023-05-10T11:05:42;22.52;;;15.13;;
71836;SDS011;59686;51.716;7.016;2023-05-10T11:08:20;19.48;;;13.90;;
71836;SDS011;59686;51.716;7.016;2023-05-10T11:13:34;18.13;;;13.60;;
71836;SDS011;59686;51.716;7.016;2023-05-10T11:16:19;18.05;;;13.55;;
71836;SDS011;59686;51.716;7.016;2023-05-10T11:18:52;19.55;;;13.95;;
71836;SDS011;59686;51.716;7.016;2023-05-10T11:21:20;17.60;;;13.50;;
71836;SDS011;59686;51.716;7.016;2023-05-10T11:26:12;18.13;;;12.63;;
71836;SDS011;59686;51.716;7.016;2023-05-10T11:28:44;16.50;;;12.30;;
71836;SDS011;59686;51.716;7.016;2023-05-10T11:31:15;18.38;;;12.60;;
71836;SDS011;59686;51.716;7.016;2023-05-10T11:33:42;15.73;;;12.52;;
71836;SDS011;59686;51.716;7.016;2023-05-10T11:36:17;18.23;;;11.55;;
71836;SDS011;59686;51.716;7.016;2023-05-10T11:38:45;18.40;;;12.35;;
71836;SDS011;59686;51.716;7.016;2023-05-10T11:41:11;16.02;;;11.82;;
71836;SDS011;59686;51.716;7.016;2023-05-10T11:43:41;15.93;;;11.52;;
71836;SDS011;59686;51.716;7.016;2023-05-10T11:46:08;16.40;;;11.27;;
71836;SDS011;59686;51.716;7.016;2023-05-10T11:48:38;15.57;;;11.32;;
71836;SDS011;59686;51.716;7.016;2023-05-10T11:53:34;15.98;;;11.50;;
71836;SDS011;59686;51.716;7.016;2023-05-10T11:56:06;16.50;;;11.30;;
71836;SDS011;59686;51.716;7.016;2023-05-10T11:58:39;13.63;;;10.00;;
71836;SDS011;59686;51.716;7.016;2023-05-10T12:01:06;13.30;;;10.82;;
71836;SDS011;59686;51.716;7.016;2023-05-10T12:03:34;14.07;;;11.10;;
71836;SDS011;59686;51.716;7.016;2023-05-10T12:06:00;14.73;;;11.35;;
71836;SDS011;59686;51.716;7.016;2023-05-10T12:08:28;13.95;;;11.18;;
71836;SDS011;59686;51.716;7.016;2023-05-10T12:11:05;14.07;;;10.90;;
71836;SDS011;59686;51.716;7.016;2023-05-10T12:13:32;13.43;;;11.15;;
71836;SDS011;59686;51.716;7.016;2023-05-10T12:16:13;14.93;;;10.70;;
71836;SDS011;59686;51.716;7.016;2023-05-10T12:18:39;16.25;;;11.82;;
71836;SDS011;59686;51.716;7.016;2023-05-10T12:21:06;13.95;;;10.95;;
71836;SDS011;59686;51.716;7.016;2023-05-10T12:23:32;14.15;;;11.18;;
71836;SDS011;59686;51.716;7.016;2023-05-10T12:26:03;12.20;;;9.93;;
71836;SDS011;59686;51.716;7.016;2023-05-10T12:28:30;14.38;;;11.48;;
71836;SDS011;59686;51.716;7.016;2023-05-10T12:30:59;12.00;;;10.70;;
71836;SDS011;59686;51.716;7.016;2023-05-10T12:33:26;12.68;;;9.90;;
71836;SDS011;59686;51.716;7.016;2023-05-10T12:35:52;15.60;;;10.60;;
71836;SDS011;59686;51.716;7.016;2023-05-10T12:38:26;13.00;;;10.73;;
71836;SDS011;59686;51.716;7.016;2023-05-10T12:40:58;14.05;;;10.55;;
71836;SDS011;59686;51.716;7.016;2023-05-10T12:43:25;12.15;;;10.45;;
71836;SDS011;59686;51.716;7.016;2023-05-10T12:45:51;13.20;;;10.57;;
71836;SDS011;59686;51.716;7.016;2023-05-10T12:48:16;11.88;;;10.32;;
71836;SDS011;59686;51.716;7.016;2023-05-10T12:50:42;13.60;;;10.55;;
71836;SDS011;59686;51.716;7.016;2023-05-10T12:53:10;12.35;;;10.48;;
71836;SDS011;59686;51.716;7.016;2023-05-10T12:55:36;13.20;;;10.98;;
71836;SDS011;59686;51.716;7.016;2023-05-10T12:58:01;13.57;;;10.43;;
71836;SDS011;59686;51.716;7.016;2023-05-10T13:00:27;15.00;;;10.63;;
71836;SDS011;59686;51.716;7.016;2023-05-10T13:02:53;12.00;;;10.30;;
71836;SDS011;59686;51.716;7.016;2023-05-10T13:05:19;12.00;;;10.48;;
71836;SDS011;59686;51.716;7.016;2023-05-10T13:07:45;13.77;;;10.88;;
71836;SDS011;59686;51.716;7.016;2023-05-10T13:10:10;13.40;;;10.30;;
71836;SDS011;59686;51.716;7.016;2023-05-10T13:12:36;12.00;;;9.88;;
71836;SDS011;59686;51.716;7.016;2023-05-10T13:15:02;12.30;;;10.00;;
71836;SDS011;59686;51.716;7.016;2023-05-10T13:17:28;14.13;;;10.75;;
71836;SDS011;59686;51.716;7.016;2023-05-10T13:19:54;13.48;;;11.20;;
71836;SDS011;59686;51.716;7.016;2023-05-10T13:22:20;12.40;;;10.50;;
71836;SDS011;59686;51.716;7.016;2023-05-10T13:24:45;12.85;;;9.98;;
71836;SDS011;59686;51.716;7.016;2023-05-10T13:27:11;12.43;;;9.95;;
71836;SDS011;59686;51.716;7.016;2023-05-10T13:29:37;11.73;;;10.13;;
71836;SDS011;59686;51.716;7.016;2023-05-10T13:32:02;12.05;;;9.30;;
71836;SDS011;59686;51.716;7.016;2023-05-10T13:34:28;13.40;;;9.95;;
71836;SDS011;59686;51.716;7.016;2023-05-10T13:36:55;11.52;;;9.60;;
71836;SDS011;59686;51.716;7.016;2023-05-10T13:39:21;11.85;;;9.57;;
71836;SDS011;59686;51.716;7.016;2023-05-10T13:41:47;12.45;;;9.52;;
71836;SDS011;59686;51.716;7.016;2023-05-10T13:44:13;11.27;;;9.05;;
71836;SDS011;59686;51.716;7.016;2023-05-10T13:46:40;12.18;;;9.45;;
71836;SDS011;59686;51.716;7.016;2023-05-10T13:49:07;14.10;;;10.65;;
71836;SDS011;59686;51.716;7.016;2023-05-10T13:51:34;11.85;;;10.02;;
71836;SDS011;59686;51.716;7.016;2023-05-10T13:54:01;12.13;;;10.05;;
71836;SDS011;59686;51.716;7.016;2023-05-10T13:56:27;12.43;;;9.48;;
71836;SDS011;59686;51.716;7.016;2023-05-10T13:58:53;13.32;;;9.40;;
71836;SDS011;59686;51.716;7.016;2023-05-10T14:01:21;13.23;;;10.23;;
71836;SDS011;59686;51.716;7.016;2023-05-10T14:03:46;11.25;;;9.18;;
71836;SDS011;59686;51.716;7.016;2023-05-10T14:06:13;12.65;;;10.38;;
71836;SDS011;59686;51.716;7.016;2023-05-10T14:08:38;14.43;;;10.20;;
71836;SDS011;59686;51.716;7.016;2023-05-10T14:11:04;15.32;;;10.35;;
71836;SDS011;59686;51.716;7.016;2023-05-10T14:13:36;12.98;;;9.18;;
71836;SDS011;59686;51.716;7.016;2023-05-10T14:16:02;10.93;;;8.68;;
71836;SDS011;59686;51.716;7.016;2023-05-10T14:18:28;12.15;;;8.75;;
71836;SDS011;59686;51.716;7.016;2023-05-10T14:20:53;12.45;;;8.63;;
71836;SDS011;59686;51.716;7.016;2023-05-10T14:23:21;9.30;;;8.35;;
71836;SDS011;59686;51.716;7.016;2023-05-10T14:25:52;9.95;;;8.68;;
71836;SDS011;59686;51.716;7.016;2023-05-10T14:28:18;10.57;;;8.45;;
71836;SDS011;59686;51.716;7.016;2023-05-10T14:30:45;8.88;;;7.97;;
71836;SDS011;59686;51.716;7.016;2023-05-10T14:33:11;8.77;;;7.13;;
71836;SDS011;59686;51.716;7.016;2023-05-10T14:35:37;9.25;;;7.18;;
71836;SDS011;59686;51.716;7.016;2023-05-10T14:38:03;9.85;;;7.57;;
71836;SDS011;59686;51.716;7.016;2023-05-10T14:40:29;9.50;;;6.85;;
71836;SDS011;59686;51.716;7.016;2023-05-10T14:42:57;8.98;;;6.93;;
71836;SDS011;59686;51.716;7.016;2023-05-10T14:45:23;8.77;;;6.90;;
71836;SDS011;59686;51.716;7.016;2023-05-10T14:47:49;7.35;;;6.60;;
71836;SDS011;59686;51.716;7.016;2023-05-10T14:50:15;9.65;;;6.88;;
71836;SDS011;59686;51.716;7.016;2023-05-10T14:52:42;8.85;;;6.90;;
71836;SDS011;59686;51.716;7.016;2023-05-10T14:55:08;8.48;;;6.55;;
71836;SDS011;59686;51.716;7.016;2023-05-10T14:57:35;10.55;;;7.00;;
71836;SDS011;59686;51.716;7.016;2023-05-10T15:00:01;8.77;;;6.32;;
71836;SDS011;59686;51.716;7.016;2023-05-10T15:02:27;9.23;;;6.97;;
71836;SDS011;59686;51.716;7.016;2023-05-10T15:04:53;11.25;;;7.25;;
71836;SDS011;59686;51.716;7.016;2023-05-10T15:07:25;9.60;;;6.18;;
71836;SDS011;59686;51.716;7.016;2023-05-10T15:09:50;8.70;;;6.22;;
71836;SDS011;59686;51.716;7.016;2023-05-10T15:12:19;9.38;;;6.07;;
71836;SDS011;59686;51.716;7.016;2023-05-10T15:14:45;6.15;;;5.53;;
71836;SDS011;59686;51.716;7.016;2023-05-10T15:17:11;7.45;;;5.88;;
71836;SDS011;59686;51.716;7.016;2023-05-10T15:19:37;7.43;;;6.10;;
71836;SDS011;59686;51.716;7.016;2023-05-10T15:22:04;8.25;;;5.72;;
71836;SDS011;59686;51.716;7.016;2023-05-10T15:24:30;7.88;;;6.38;;